sensor_id;sensor_type;location;lat;lon;timestamp;temperature;humidity
18160;DHT22;9205;52.032;4.314;2024-02-04T00:01:08;10.10;99.90
18160;DHT22;9205;52.032;4.314;2024-02-04T00:03:36;10.20;99.90
18160;DHT22;9205;52.032;4.314;2024-02-04T00:06:04;9.80;99.90
18160;DHT22;9205;52.032;4.314;2024-02-04T00:08:32;10.00;99.90
18160;DHT22;9205;52.032;4.314;2024-02-04T00:10:59;9.70;99.90
18160;DHT22;9205;52.032;4.314;2024-02-04T00:13:26;10.00;99.90
18160;DHT22;9205;52.032;4.314;2024-02-04T00:15:53;9.70;99.90
18160;DHT22;9205;52.032;4.314;2024-02-04T00:18:20;9.80;99.90
18160;DHT22;9205;52.032;4.314;2024-02-04T00:20:49;10.10;99.90
18160;DHT22;9205;52.032;4.314;2024-02-04T00:23:16;9.80;99.90
18160;DHT22;9205;52.032;4.314;2024-02-04T00:25:43;9.70;99.90
18160;DHT22;9205;52.032;4.314;2024-02-04T00:28:10;9.70;99.90
18160;DHT22;9205;52.032;4.314;2024-02-04T00:30:38;9.70;99.90
18160;DHT22;9205;52.032;4.314;2024-02-04T00:33:06;10.00;99.90
18160;DHT22;9205;52.032;4.314;2024-02-04T00:35:33;10.00;99.90
18160;DHT22;9205;52.032;4.314;2024-02-04T00:38:02;9.90;99.90
18160;DHT22;9205;52.032;4.314;2024-02-04T00:40:29;9.80;99.90
18160;DHT22;9205;52.032;4.314;2024-02-04T00:42:57;9.60;99.90
18160;DHT22;9205;52.032;4.314;2024-02-04T00:45:24;9.70;99.90
18160;DHT22;9205;52.032;4.314;2024-02-04T00:47:51;10.10;99.90
18160;DHT22;9205;52.032;4.314;2024-02-04T00:50:18;9.90;99.90
18160;DHT22;9205;52.032;4.314;2024-02-04T00:52:46;9.60;99.90
18160;DHT22;9205;52.032;4.314;2024-02-04T00:55:14;9.70;99.90
18160;DHT22;9205;52.032;4.314;2024-02-04T00:57:42;10.00;99.90
18160;DHT22;9205;52.032;4.314;2024-02-04T01:00:10;10.00;99.90
18160;DHT22;9205;52.032;4.314;2024-02-04T01:02:38;9.60;99.90
18160;DHT22;9205;52.032;4.314;2024-02-04T01:05:06;10.10;99.90
18160;DHT22;9205;52.032;4.314;2024-02-04T01:07:34;9.70;99.90
18160;DHT22;9205;52.032;4.314;2024-02-04T01:10:01;10.00;99.90
18160;DHT22;9205;52.032;4.314;2024-02-04T01:12:30;9.90;99.90
18160;DHT22;9205;52.032;4.314;2024-02-04T01:14:57;10.10;99.90
18160;DHT22;9205;52.032;4.314;2024-02-04T01:17:24;10.20;99.90
18160;DHT22;9205;52.032;4.314;2024-02-04T01:19:52;9.80;99.90
18160;DHT22;9205;52.032;4.314;2024-02-04T01:22:19;9.80;99.90
18160;DHT22;9205;52.032;4.314;2024-02-04T01:24:50;9.70;99.90
18160;DHT22;9205;52.032;4.314;2024-02-04T01:27:18;10.00;99.90
18160;DHT22;9205;52.032;4.314;2024-02-04T01:29:46;9.60;99.90
18160;DHT22;9205;52.032;4.314;2024-02-04T01:32:13;10.00;99.90
18160;DHT22;9205;52.032;4.314;2024-02-04T01:34:41;10.10;99.90
18160;DHT22;9205;52.032;4.314;2024-02-04T01:37:08;9.80;99.90
18160;DHT22;9205;52.032;4.314;2024-02-04T01:39:36;9.50;99.90
18160;DHT22;9205;52.032;4.314;2024-02-04T01:42:03;9.80;99.90
18160;DHT22;9205;52.032;4.314;2024-02-04T01:44:31;9.60;99.90
18160;DHT22;9205;52.032;4.314;2024-02-04T01:47:00;9.40;99.90
18160;DHT22;9205;52.032;4.314;2024-02-04T01:49:27;9.80;99.90
18160;DHT22;9205;52.032;4.314;2024-02-04T01:51:55;9.70;99.90
18160;DHT22;9205;52.032;4.314;2024-02-04T01:54:24;9.30;99.90
18160;DHT22;9205;52.032;4.314;2024-02-04T01:56:52;9.80;99.90
18160;DHT22;9205;52.032;4.314;2024-02-04T01:59:22;9.30;99.90
18160;DHT22;9205;52.032;4.314;2024-02-04T02:01:54;9.40;99.90
18160;DHT22;9205;52.032;4.314;2024-02-04T02:04:22;9.60;99.90
18160;DHT22;9205;52.032;4.314;2024-02-04T02:06:51;9.90;99.90
18160;DHT22;9205;52.032;4.314;2024-02-04T02:09:18;9.70;99.90
18160;DHT22;9205;52.032;4.314;2024-02-04T02:11:47;9.70;99.90
18160;DHT22;9205;52.032;4.314;2024-02-04T02:14:27;9.80;99.90
18160;DHT22;9205;52.032;4.314;2024-02-04T02:17:02;9.30;99.90
18160;DHT22;9205;52.032;4.314;2024-02-04T02:19:40;9.70;99.90
18160;DHT22;9205;52.032;4.314;2024-02-04T02:22:21;9.40;99.90
18160;DHT22;9205;52.032;4.314;2024-02-04T02:24:56;9.50;99.90
18160;DHT22;9205;52.032;4.314;2024-02-04T02:27:24;9.70;99.90
18160;DHT22;9205;52.032;4.314;2024-02-04T02:29:52;9.70;99.90
18160;DHT22;9205;52.032;4.314;2024-02-04T02:32:19;9.70;99.90
18160;DHT22;9205;52.032;4.314;2024-02-04T02:34:47;9.80;99.90
18160;DHT22;9205;52.032;4.314;2024-02-04T02:37:24;9.40;99.90
18160;DHT22;9205;52.032;4.314;2024-02-04T02:40:00;9.80;99.90
18160;DHT22;9205;52.032;4.314;2024-02-04T02:42:32;9.70;99.90
18160;DHT22;9205;52.032;4.314;2024-02-04T02:45:02;9.30;99.90
18160;DHT22;9205;52.032;4.314;2024-02-04T02:47:30;9.70;99.90
18160;DHT22;9205;52.032;4.314;2024-02-04T02:50:00;9.40;99.90
18160;DHT22;9205;52.032;4.314;2024-02-04T02:52:27;9.70;99.90
18160;DHT22;9205;52.032;4.314;2024-02-04T02:54:54;9.70;99.90
18160;DHT22;9205;52.032;4.314;2024-02-04T02:57:23;9.40;99.90
18160;DHT22;9205;52.032;4.314;2024-02-04T02:59:50;9.50;99.90
18160;DHT22;9205;52.032;4.314;2024-02-04T03:02:17;9.30;99.90
18160;DHT22;9205;52.032;4.314;2024-02-04T03:04:44;9.40;99.90
18160;DHT22;9205;52.032;4.314;2024-02-04T03:07:12;9.60;99.90
18160;DHT22;9205;52.032;4.314;2024-02-04T03:09:39;9.20;99.90
18160;DHT22;9205;52.032;4.314;2024-02-04T03:12:06;9.40;99.90
18160;DHT22;9205;52.032;4.314;2024-02-04T03:14:35;9.20;99.90
18160;DHT22;9205;52.032;4.314;2024-02-04T03:17:03;9.50;99.90
18160;DHT22;9205;52.032;4.314;2024-02-04T03:19:30;9.10;99.90
18160;DHT22;9205;52.032;4.314;2024-02-04T03:21:58;9.40;99.90
18160;DHT22;9205;52.032;4.314;2024-02-04T03:24:25;9.50;99.90
18160;DHT22;9205;52.032;4.314;2024-02-04T03:26:52;9.60;99.90
18160;DHT22;9205;52.032;4.314;2024-02-04T03:29:19;9.10;99.90
18160;DHT22;9205;52.032;4.314;2024-02-04T03:31:48;9.00;99.90
18160;DHT22;9205;52.032;4.314;2024-02-04T03:34:16;9.20;99.90
18160;DHT22;9205;52.032;4.314;2024-02-04T03:36:43;9.60;99.90
18160;DHT22;9205;52.032;4.314;2024-02-04T03:39:10;9.60;99.90
18160;DHT22;9205;52.032;4.314;2024-02-04T03:41:37;9.10;99.90
18160;DHT22;9205;52.032;4.314;2024-02-04T03:44:04;9.20;99.90
18160;DHT22;9205;52.032;4.314;2024-02-04T03:46:32;9.20;99.90
18160;DHT22;9205;52.032;4.314;2024-02-04T03:49:00;9.10;99.90
18160;DHT22;9205;52.032;4.314;2024-02-04T03:51:27;9.10;99.90
18160;DHT22;9205;52.032;4.314;2024-02-04T03:53:54;9.40;99.90
18160;DHT22;9205;52.032;4.314;2024-02-04T03:56:22;9.20;99.90
18160;DHT22;9205;52.032;4.314;2024-02-04T03:58:49;9.60;99.90
18160;DHT22;9205;52.032;4.314;2024-02-04T04:01:16;9.20;99.90
18160;DHT22;9205;52.032;4.314;2024-02-04T04:03:44;9.30;99.90
18160;DHT22;9205;52.032;4.314;2024-02-04T04:06:12;9.40;99.90
18160;DHT22;9205;52.032;4.314;2024-02-04T04:08:39;9.30;99.90
18160;DHT22;9205;52.032;4.314;2024-02-04T04:11:09;9.20;99.90
18160;DHT22;9205;52.032;4.314;2024-02-04T04:13:37;9.60;99.90
18160;DHT22;9205;52.032;4.314;2024-02-04T04:16:05;9.20;99.90
18160;DHT22;9205;52.032;4.314;2024-02-04T04:18:32;9.50;99.90
18160;DHT22;9205;52.032;4.314;2024-02-04T04:21:00;9.50;99.90
18160;DHT22;9205;52.032;4.314;2024-02-04T04:23:29;9.10;99.90
18160;DHT22;9205;52.032;4.314;2024-02-04T04:25:56;9.10;99.90
18160;DHT22;9205;52.032;4.314;2024-02-04T04:28:23;9.40;99.90
18160;DHT22;9205;52.032;4.314;2024-02-04T04:30:51;9.20;99.90
18160;DHT22;9205;52.032;4.314;2024-02-04T04:33:18;9.30;99.90
18160;DHT22;9205;52.032;4.314;2024-02-04T04:35:46;9.40;99.90
18160;DHT22;9205;52.032;4.314;2024-02-04T04:38:13;9.50;99.90
18160;DHT22;9205;52.032;4.314;2024-02-04T04:40:41;9.50;99.90
18160;DHT22;9205;52.032;4.314;2024-02-04T04:43:09;9.30;99.90
18160;DHT22;9205;52.032;4.314;2024-02-04T04:45:36;9.00;99.90
18160;DHT22;9205;52.032;4.314;2024-02-04T04:48:04;9.30;99.90
18160;DHT22;9205;52.032;4.314;2024-02-04T04:50:33;8.90;99.90
18160;DHT22;9205;52.032;4.314;2024-02-04T04:53:00;9.10;99.90
18160;DHT22;9205;52.032;4.314;2024-02-04T04:55:28;9.50;99.90
18160;DHT22;9205;52.032;4.314;2024-02-04T04:57:56;9.50;99.90
18160;DHT22;9205;52.032;4.314;2024-02-04T05:00:23;8.90;99.90
18160;DHT22;9205;52.032;4.314;2024-02-04T05:02:51;8.90;99.90
18160;DHT22;9205;52.032;4.314;2024-02-04T05:05:18;8.90;99.90
18160;DHT22;9205;52.032;4.314;2024-02-04T05:07:45;9.00;99.90
18160;DHT22;9205;52.032;4.314;2024-02-04T05:10:13;9.40;99.90
18160;DHT22;9205;52.032;4.314;2024-02-04T05:12:40;9.30;99.90
18160;DHT22;9205;52.032;4.314;2024-02-04T05:15:09;9.20;99.90
18160;DHT22;9205;52.032;4.314;2024-02-04T05:17:36;9.40;99.90
18160;DHT22;9205;52.032;4.314;2024-02-04T05:20:05;9.40;99.90
18160;DHT22;9205;52.032;4.314;2024-02-04T05:22:33;9.20;99.90
18160;DHT22;9205;52.032;4.314;2024-02-04T05:25:00;8.80;99.90
18160;DHT22;9205;52.032;4.314;2024-02-04T05:27:30;8.90;99.90
18160;DHT22;9205;52.032;4.314;2024-02-04T05:29:57;9.40;99.90
18160;DHT22;9205;52.032;4.314;2024-02-04T05:32:26;8.90;99.90
18160;DHT22;9205;52.032;4.314;2024-02-04T05:34:53;8.80;99.90
18160;DHT22;9205;52.032;4.314;2024-02-04T05:37:20;9.30;99.90
18160;DHT22;9205;52.032;4.314;2024-02-04T05:39:47;9.30;99.90
18160;DHT22;9205;52.032;4.314;2024-02-04T05:42:14;9.00;99.90
18160;DHT22;9205;52.032;4.314;2024-02-04T05:44:42;9.40;99.90
18160;DHT22;9205;52.032;4.314;2024-02-04T05:47:09;8.90;99.90
18160;DHT22;9205;52.032;4.314;2024-02-04T05:49:37;9.00;99.90
18160;DHT22;9205;52.032;4.314;2024-02-04T05:52:05;9.00;99.90
18160;DHT22;9205;52.032;4.314;2024-02-04T05:54:37;9.30;99.90
18160;DHT22;9205;52.032;4.314;2024-02-04T05:57:06;9.50;99.90
18160;DHT22;9205;52.032;4.314;2024-02-04T05:59:33;9.20;99.90
18160;DHT22;9205;52.032;4.314;2024-02-04T06:02:01;9.60;99.90
18160;DHT22;9205;52.032;4.314;2024-02-04T06:04:28;9.30;99.90
18160;DHT22;9205;52.032;4.314;2024-02-04T06:06:57;9.70;99.90
18160;DHT22;9205;52.032;4.314;2024-02-04T06:09:24;9.40;99.90
18160;DHT22;9205;52.032;4.314;2024-02-04T06:11:52;9.50;99.90
18160;DHT22;9205;52.032;4.314;2024-02-04T06:14:19;9.80;99.90
18160;DHT22;9205;52.032;4.314;2024-02-04T06:16:46;9.80;99.90
18160;DHT22;9205;52.032;4.314;2024-02-04T06:19:13;9.80;99.90
18160;DHT22;9205;52.032;4.314;2024-02-04T06:21:40;10.00;99.90
18160;DHT22;9205;52.032;4.314;2024-02-04T06:24:09;9.40;99.90
18160;DHT22;9205;52.032;4.314;2024-02-04T06:26:38;9.80;99.90
18160;DHT22;9205;52.032;4.314;2024-02-04T06:29:05;10.00;99.90
18160;DHT22;9205;52.032;4.314;2024-02-04T06:31:32;9.70;99.90
18160;DHT22;9205;52.032;4.314;2024-02-04T06:33:59;9.80;99.90
18160;DHT22;9205;52.032;4.314;2024-02-04T06:36:27;9.70;99.90
18160;DHT22;9205;52.032;4.314;2024-02-04T06:38:54;9.90;99.90
18160;DHT22;9205;52.032;4.314;2024-02-04T06:41:23;9.80;99.90
18160;DHT22;9205;52.032;4.314;2024-02-04T06:43:50;9.50;99.90
18160;DHT22;9205;52.032;4.314;2024-02-04T06:46:24;9.50;99.90
18160;DHT22;9205;52.032;4.314;2024-02-04T06:48:52;10.00;99.90
18160;DHT22;9205;52.032;4.314;2024-02-04T06:51:20;9.60;99.90
18160;DHT22;9205;52.032;4.314;2024-02-04T06:53:48;10.10;99.90
18160;DHT22;9205;52.032;4.314;2024-02-04T06:56:15;9.70;99.90
18160;DHT22;9205;52.032;4.314;2024-02-04T06:58:43;9.80;99.90
18160;DHT22;9205;52.032;4.314;2024-02-04T07:01:11;9.90;99.90
18160;DHT22;9205;52.032;4.314;2024-02-04T07:03:38;10.00;99.90
18160;DHT22;9205;52.032;4.314;2024-02-04T07:06:06;9.90;99.90
18160;DHT22;9205;52.032;4.314;2024-02-04T07:08:34;9.90;99.90
18160;DHT22;9205;52.032;4.314;2024-02-04T07:11:01;9.30;99.90
18160;DHT22;9205;52.032;4.314;2024-02-04T07:13:29;9.90;99.90
18160;DHT22;9205;52.032;4.314;2024-02-04T07:15:57;9.90;99.90
18160;DHT22;9205;52.032;4.314;2024-02-04T07:18:24;9.50;99.90
18160;DHT22;9205;52.032;4.314;2024-02-04T07:20:52;9.80;99.90
18160;DHT22;9205;52.032;4.314;2024-02-04T07:23:19;9.70;99.90
18160;DHT22;9205;52.032;4.314;2024-02-04T07:25:47;10.00;99.90
18160;DHT22;9205;52.032;4.314;2024-02-04T07:28:14;9.90;99.90
18160;DHT22;9205;52.032;4.314;2024-02-04T07:30:41;9.40;99.90
18160;DHT22;9205;52.032;4.314;2024-02-04T07:33:10;9.40;99.90
18160;DHT22;9205;52.032;4.314;2024-02-04T07:35:37;9.80;99.90
18160;DHT22;9205;52.032;4.314;2024-02-04T07:38:04;9.50;99.90
18160;DHT22;9205;52.032;4.314;2024-02-04T07:40:31;9.40;99.90
18160;DHT22;9205;52.032;4.314;2024-02-04T07:42:59;9.80;99.90
18160;DHT22;9205;52.032;4.314;2024-02-04T07:45:26;9.40;99.90
18160;DHT22;9205;52.032;4.314;2024-02-04T07:47:53;9.80;99.90
18160;DHT22;9205;52.032;4.314;2024-02-04T07:50:21;9.90;99.90
18160;DHT22;9205;52.032;4.314;2024-02-04T07:52:49;10.00;99.90
18160;DHT22;9205;52.032;4.314;2024-02-04T07:55:16;10.10;99.90
18160;DHT22;9205;52.032;4.314;2024-02-04T07:57:43;9.70;99.90
18160;DHT22;9205;52.032;4.314;2024-02-04T08:00:11;9.80;99.90
18160;DHT22;9205;52.032;4.314;2024-02-04T08:02:39;9.80;99.90
18160;DHT22;9205;52.032;4.314;2024-02-04T08:05:07;10.00;99.90
18160;DHT22;9205;52.032;4.314;2024-02-04T08:07:36;9.80;99.90
18160;DHT22;9205;52.032;4.314;2024-02-04T08:10:04;9.70;99.90
18160;DHT22;9205;52.032;4.314;2024-02-04T08:12:33;9.80;99.90
18160;DHT22;9205;52.032;4.314;2024-02-04T08:15:00;9.90;99.90
18160;DHT22;9205;52.032;4.314;2024-02-04T08:17:28;10.20;99.90
18160;DHT22;9205;52.032;4.314;2024-02-04T08:19:56;10.10;99.90
18160;DHT22;9205;52.032;4.314;2024-02-04T08:22:23;10.20;99.90
18160;DHT22;9205;52.032;4.314;2024-02-04T08:24:53;10.20;99.90
18160;DHT22;9205;52.032;4.314;2024-02-04T08:27:21;10.20;99.90
18160;DHT22;9205;52.032;4.314;2024-02-04T08:29:48;9.80;99.90
18160;DHT22;9205;52.032;4.314;2024-02-04T08:32:15;10.20;99.90
18160;DHT22;9205;52.032;4.314;2024-02-04T08:34:43;10.30;99.90
18160;DHT22;9205;52.032;4.314;2024-02-04T08:37:10;10.20;99.90
18160;DHT22;9205;52.032;4.314;2024-02-04T08:39:37;10.10;99.90
18160;DHT22;9205;52.032;4.314;2024-02-04T08:42:06;10.30;99.90
18160;DHT22;9205;52.032;4.314;2024-02-04T08:44:33;10.20;99.90
18160;DHT22;9205;52.032;4.314;2024-02-04T08:47:00;10.40;99.90
18160;DHT22;9205;52.032;4.314;2024-02-04T08:49:27;10.50;99.90
18160;DHT22;9205;52.032;4.314;2024-02-04T08:51:54;10.30;99.90
18160;DHT22;9205;52.032;4.314;2024-02-04T08:54:21;10.10;99.90
18160;DHT22;9205;52.032;4.314;2024-02-04T08:56:49;10.10;99.90
18160;DHT22;9205;52.032;4.314;2024-02-04T08:59:17;10.20;99.90
18160;DHT22;9205;52.032;4.314;2024-02-04T09:01:44;10.40;99.90
18160;DHT22;9205;52.032;4.314;2024-02-04T09:04:12;10.40;99.90
18160;DHT22;9205;52.032;4.314;2024-02-04T09:06:39;10.50;99.90
18160;DHT22;9205;52.032;4.314;2024-02-04T09:09:07;10.30;99.90
18160;DHT22;9205;52.032;4.314;2024-02-04T09:11:35;10.30;99.90
18160;DHT22;9205;52.032;4.314;2024-02-04T09:14:03;10.30;99.90
18160;DHT22;9205;52.032;4.314;2024-02-04T09:16:33;10.40;99.90
18160;DHT22;9205;52.032;4.314;2024-02-04T09:19:00;10.50;99.90
18160;DHT22;9205;52.032;4.314;2024-02-04T09:21:27;10.60;99.90
18160;DHT22;9205;52.032;4.314;2024-02-04T09:23:55;10.50;99.90
18160;DHT22;9205;52.032;4.314;2024-02-04T09:26:23;10.20;99.90
18160;DHT22;9205;52.032;4.314;2024-02-04T09:28:50;10.50;99.90
18160;DHT22;9205;52.032;4.314;2024-02-04T09:31:17;10.50;99.90
18160;DHT22;9205;52.032;4.314;2024-02-04T09:33:46;10.10;99.90
18160;DHT22;9205;52.032;4.314;2024-02-04T09:36:13;9.90;99.90
18160;DHT22;9205;52.032;4.314;2024-02-04T09:38:40;10.10;99.90
18160;DHT22;9205;52.032;4.314;2024-02-04T09:41:08;10.10;99.90
18160;DHT22;9205;52.032;4.314;2024-02-04T09:43:35;10.20;99.90
18160;DHT22;9205;52.032;4.314;2024-02-04T09:46:04;10.20;99.90
18160;DHT22;9205;52.032;4.314;2024-02-04T09:48:32;9.70;99.90
18160;DHT22;9205;52.032;4.314;2024-02-04T09:51:02;9.70;99.90
18160;DHT22;9205;52.032;4.314;2024-02-04T09:53:32;9.70;99.90
18160;DHT22;9205;52.032;4.314;2024-02-04T09:56:02;10.20;99.90
18160;DHT22;9205;52.032;4.314;2024-02-04T09:58:32;10.10;99.90
18160;DHT22;9205;52.032;4.314;2024-02-04T10:01:00;10.10;99.90
18160;DHT22;9205;52.032;4.314;2024-02-04T10:03:27;9.90;99.90
18160;DHT22;9205;52.032;4.314;2024-02-04T10:05:55;10.20;99.90
18160;DHT22;9205;52.032;4.314;2024-02-04T10:08:24;10.20;99.90
18160;DHT22;9205;52.032;4.314;2024-02-04T10:10:51;10.30;99.90
18160;DHT22;9205;52.032;4.314;2024-02-04T10:13:20;10.10;99.90
18160;DHT22;9205;52.032;4.314;2024-02-04T10:15:48;10.00;99.90
18160;DHT22;9205;52.032;4.314;2024-02-04T10:18:17;10.20;99.90
18160;DHT22;9205;52.032;4.314;2024-02-04T10:20:44;10.20;99.90
18160;DHT22;9205;52.032;4.314;2024-02-04T10:23:11;10.30;99.90
18160;DHT22;9205;52.032;4.314;2024-02-04T10:25:40;10.30;99.90
18160;DHT22;9205;52.032;4.314;2024-02-04T10:28:08;10.30;99.90
18160;DHT22;9205;52.032;4.314;2024-02-04T10:30:38;10.50;99.90
18160;DHT22;9205;52.032;4.314;2024-02-04T10:33:05;10.20;99.90
18160;DHT22;9205;52.032;4.314;2024-02-04T10:35:32;10.70;99.90
18160;DHT22;9205;52.032;4.314;2024-02-04T10:38:00;10.40;99.90
18160;DHT22;9205;52.032;4.314;2024-02-04T10:40:27;10.70;99.90
18160;DHT22;9205;52.032;4.314;2024-02-04T10:42:59;10.30;99.90
18160;DHT22;9205;52.032;4.314;2024-02-04T10:45:32;10.40;99.90
18160;DHT22;9205;52.032;4.314;2024-02-04T10:48:03;10.20;99.90
18160;DHT22;9205;52.032;4.314;2024-02-04T10:50:35;10.70;99.90
18160;DHT22;9205;52.032;4.314;2024-02-04T10:53:05;10.30;99.90
18160;DHT22;9205;52.032;4.314;2024-02-04T10:55:39;10.40;99.90
18160;DHT22;9205;52.032;4.314;2024-02-04T10:58:10;10.40;99.90
18160;DHT22;9205;52.032;4.314;2024-02-04T11:00:40;10.40;99.90
18160;DHT22;9205;52.032;4.314;2024-02-04T11:03:08;10.60;99.90
18160;DHT22;9205;52.032;4.314;2024-02-04T11:05:37;10.70;99.90
18160;DHT22;9205;52.032;4.314;2024-02-04T11:08:11;10.50;99.90
18160;DHT22;9205;52.032;4.314;2024-02-04T11:10:40;10.40;99.90
18160;DHT22;9205;52.032;4.314;2024-02-04T11:13:10;10.60;99.90
18160;DHT22;9205;52.032;4.314;2024-02-04T11:15:38;10.50;99.90
18160;DHT22;9205;52.032;4.314;2024-02-04T11:18:29;10.40;99.90
18160;DHT22;9205;52.032;4.314;2024-02-04T11:21:17;10.60;99.90
18160;DHT22;9205;52.032;4.314;2024-02-04T11:24:08;10.70;99.90
18160;DHT22;9205;52.032;4.314;2024-02-04T11:26:45;10.70;99.90
18160;DHT22;9205;52.032;4.314;2024-02-04T11:29:14;10.60;99.90
18160;DHT22;9205;52.032;4.314;2024-02-04T11:31:41;10.80;99.90
18160;DHT22;9205;52.032;4.314;2024-02-04T11:34:08;10.60;99.90
18160;DHT22;9205;52.032;4.314;2024-02-04T11:36:38;10.50;99.90
18160;DHT22;9205;52.032;4.314;2024-02-04T11:39:11;10.60;99.90
18160;DHT22;9205;52.032;4.314;2024-02-04T11:41:45;10.80;99.90
18160;DHT22;9205;52.032;4.314;2024-02-04T11:44:20;10.60;99.90
18160;DHT22;9205;52.032;4.314;2024-02-04T11:46:48;10.90;99.90
18160;DHT22;9205;52.032;4.314;2024-02-04T11:49:16;11.00;99.90
18160;DHT22;9205;52.032;4.314;2024-02-04T11:51:46;10.70;99.90
18160;DHT22;9205;52.032;4.314;2024-02-04T11:54:15;10.90;99.90
18160;DHT22;9205;52.032;4.314;2024-02-04T11:56:45;11.00;99.90
18160;DHT22;9205;52.032;4.314;2024-02-04T11:59:20;11.00;99.90
18160;DHT22;9205;52.032;4.314;2024-02-04T12:01:48;10.80;99.90
18160;DHT22;9205;52.032;4.314;2024-02-04T12:04:16;10.90;99.90
18160;DHT22;9205;52.032;4.314;2024-02-04T12:06:43;10.90;99.90
18160;DHT22;9205;52.032;4.314;2024-02-04T12:09:11;10.80;99.90
18160;DHT22;9205;52.032;4.314;2024-02-04T12:11:39;10.70;99.90
18160;DHT22;9205;52.032;4.314;2024-02-04T12:14:07;10.90;99.90
18160;DHT22;9205;52.032;4.314;2024-02-04T12:16:36;10.90;99.90
18160;DHT22;9205;52.032;4.314;2024-02-04T12:19:03;10.90;99.90
18160;DHT22;9205;52.032;4.314;2024-02-04T12:21:31;10.70;99.90
18160;DHT22;9205;52.032;4.314;2024-02-04T12:23:58;10.90;99.90
18160;DHT22;9205;52.032;4.314;2024-02-04T12:26:26;10.80;99.90
18160;DHT22;9205;52.032;4.314;2024-02-04T12:28:55;10.70;99.90
18160;DHT22;9205;52.032;4.314;2024-02-04T12:31:25;10.80;99.90
18160;DHT22;9205;52.032;4.314;2024-02-04T12:33:56;11.10;99.90
18160;DHT22;9205;52.032;4.314;2024-02-04T12:36:26;10.90;99.90
18160;DHT22;9205;52.032;4.314;2024-02-04T12:38:54;11.20;99.90
18160;DHT22;9205;52.032;4.314;2024-02-04T12:41:22;10.90;99.90
18160;DHT22;9205;52.032;4.314;2024-02-04T12:43:51;11.10;99.90
18160;DHT22;9205;52.032;4.314;2024-02-04T12:46:19;11.10;99.90
18160;DHT22;9205;52.032;4.314;2024-02-04T12:48:51;11.00;99.90
18160;DHT22;9205;52.032;4.314;2024-02-04T12:51:28;11.10;99.90
18160;DHT22;9205;52.032;4.314;2024-02-04T12:54:04;11.20;99.90
18160;DHT22;9205;52.032;4.314;2024-02-04T12:56:40;10.90;99.90
18160;DHT22;9205;52.032;4.314;2024-02-04T12:59:11;11.20;99.90
18160;DHT22;9205;52.032;4.314;2024-02-04T13:01:39;11.00;99.90
18160;DHT22;9205;52.032;4.314;2024-02-04T13:04:06;11.10;99.90
18160;DHT22;9205;52.032;4.314;2024-02-04T13:06:39;11.00;99.90
18160;DHT22;9205;52.032;4.314;2024-02-04T13:09:07;11.20;99.90
18160;DHT22;9205;52.032;4.314;2024-02-04T13:11:34;11.10;99.90
18160;DHT22;9205;52.032;4.314;2024-02-04T13:14:01;11.20;99.90
18160;DHT22;9205;52.032;4.314;2024-02-04T13:16:29;11.20;99.90
18160;DHT22;9205;52.032;4.314;2024-02-04T13:19:01;11.10;99.90
18160;DHT22;9205;52.032;4.314;2024-02-04T13:21:29;11.10;99.90
18160;DHT22;9205;52.032;4.314;2024-02-04T13:23:57;11.30;99.90
18160;DHT22;9205;52.032;4.314;2024-02-04T13:26:25;11.10;99.90
18160;DHT22;9205;52.032;4.314;2024-02-04T13:28:52;11.10;99.90
18160;DHT22;9205;52.032;4.314;2024-02-04T13:31:19;11.00;99.90
18160;DHT22;9205;52.032;4.314;2024-02-04T13:33:47;11.20;99.90
18160;DHT22;9205;52.032;4.314;2024-02-04T13:36:14;11.20;99.90
18160;DHT22;9205;52.032;4.314;2024-02-04T13:38:41;11.10;99.90
18160;DHT22;9205;52.032;4.314;2024-02-04T13:41:10;11.20;99.90
18160;DHT22;9205;52.032;4.314;2024-02-04T13:43:37;11.20;99.90
18160;DHT22;9205;52.032;4.314;2024-02-04T13:46:05;10.90;99.90
18160;DHT22;9205;52.032;4.314;2024-02-04T13:48:33;11.00;99.90
18160;DHT22;9205;52.032;4.314;2024-02-04T13:51:00;10.90;99.90
18160;DHT22;9205;52.032;4.314;2024-02-04T13:53:27;10.90;99.90
18160;DHT22;9205;52.032;4.314;2024-02-04T13:55:57;10.90;99.90
18160;DHT22;9205;52.032;4.314;2024-02-04T13:58:25;10.90;99.90
18160;DHT22;9205;52.032;4.314;2024-02-04T14:00:53;10.90;99.90
18160;DHT22;9205;52.032;4.314;2024-02-04T14:03:20;10.80;99.90
18160;DHT22;9205;52.032;4.314;2024-02-04T14:05:48;11.00;99.90
18160;DHT22;9205;52.032;4.314;2024-02-04T14:08:16;10.80;99.90
18160;DHT22;9205;52.032;4.314;2024-02-04T14:10:43;10.70;99.90
18160;DHT22;9205;52.032;4.314;2024-02-04T14:13:10;10.80;99.90
18160;DHT22;9205;52.032;4.314;2024-02-04T14:15:39;10.80;99.90
18160;DHT22;9205;52.032;4.314;2024-02-04T14:18:07;10.90;99.90
18160;DHT22;9205;52.032;4.314;2024-02-04T14:20:39;10.80;99.90
18160;DHT22;9205;52.032;4.314;2024-02-04T14:23:07;10.70;99.90
18160;DHT22;9205;52.032;4.314;2024-02-04T14:25:34;10.80;99.90
18160;DHT22;9205;52.032;4.314;2024-02-04T14:28:02;10.90;99.90
18160;DHT22;9205;52.032;4.314;2024-02-04T14:30:30;10.60;99.90
18160;DHT22;9205;52.032;4.314;2024-02-04T14:32:58;10.70;99.90
18160;DHT22;9205;52.032;4.314;2024-02-04T14:35:25;10.70;99.90
18160;DHT22;9205;52.032;4.314;2024-02-04T14:37:53;10.50;99.90
18160;DHT22;9205;52.032;4.314;2024-02-04T14:40:20;10.70;99.90
18160;DHT22;9205;52.032;4.314;2024-02-04T14:42:47;10.80;99.90
18160;DHT22;9205;52.032;4.314;2024-02-04T14:45:14;10.50;99.90
18160;DHT22;9205;52.032;4.314;2024-02-04T14:47:41;10.80;99.90
18160;DHT22;9205;52.032;4.314;2024-02-04T14:50:10;10.50;99.90
18160;DHT22;9205;52.032;4.314;2024-02-04T14:52:38;10.60;99.90
18160;DHT22;9205;52.032;4.314;2024-02-04T14:55:06;10.60;99.90
18160;DHT22;9205;52.032;4.314;2024-02-04T14:57:35;10.50;99.90
18160;DHT22;9205;52.032;4.314;2024-02-04T15:00:03;10.70;99.90
18160;DHT22;9205;52.032;4.314;2024-02-04T15:02:31;10.70;99.90
18160;DHT22;9205;52.032;4.314;2024-02-04T15:04:59;10.50;99.90
18160;DHT22;9205;52.032;4.314;2024-02-04T15:07:27;10.40;99.90
18160;DHT22;9205;52.032;4.314;2024-02-04T15:09:55;10.40;99.90
18160;DHT22;9205;52.032;4.314;2024-02-04T15:12:24;10.50;99.90
18160;DHT22;9205;52.032;4.314;2024-02-04T15:14:52;10.50;99.90
18160;DHT22;9205;52.032;4.314;2024-02-04T15:17:20;10.30;99.90
18160;DHT22;9205;52.032;4.314;2024-02-04T15:19:48;10.20;99.90
18160;DHT22;9205;52.032;4.314;2024-02-04T15:22:16;10.40;99.90
18160;DHT22;9205;52.032;4.314;2024-02-04T15:24:45;10.30;99.90
18160;DHT22;9205;52.032;4.314;2024-02-04T15:27:13;10.40;99.90
18160;DHT22;9205;52.032;4.314;2024-02-04T15:29:41;10.30;99.90
18160;DHT22;9205;52.032;4.314;2024-02-04T15:32:11;10.40;99.90
18160;DHT22;9205;52.032;4.314;2024-02-04T15:34:43;10.20;99.90
18160;DHT22;9205;52.032;4.314;2024-02-04T15:37:11;10.30;99.90
18160;DHT22;9205;52.032;4.314;2024-02-04T15:39:38;10.20;99.90
18160;DHT22;9205;52.032;4.314;2024-02-04T15:42:08;10.10;99.90
18160;DHT22;9205;52.032;4.314;2024-02-04T15:44:35;10.20;99.90
18160;DHT22;9205;52.032;4.314;2024-02-04T15:47:04;10.10;99.90
18160;DHT22;9205;52.032;4.314;2024-02-04T15:49:34;10.00;99.90
18160;DHT22;9205;52.032;4.314;2024-02-04T15:52:04;10.10;99.90
18160;DHT22;9205;52.032;4.314;2024-02-04T15:54:32;10.20;99.90
18160;DHT22;9205;52.032;4.314;2024-02-04T15:57:04;10.00;99.90
18160;DHT22;9205;52.032;4.314;2024-02-04T15:59:46;10.20;99.90